﻿<?xml version="1.0" encoding="UTF-8" standalone="no" ?>
<gpx xmlns="http://www.topografix.com/GPX/1/1" creator="CompeGPS" version="1.1" xmlns:xsi="http://www.w3.org/2001/XMLSchema-instance" xsi:schemaLocation="http://www.topografix.com/GPX/1/1 http://www.topografix.com/GPX/1/1/gpx.xsd http://www.garmin.com/xmlschemas/GpxExtensions/v3 http://www.garmin.com/xmlschemas/GpxExtensionsv3.xsd http://www.garmin.com/xmlschemas/TrackPointExtension/v1 http://www.garmin.com/xmlschemas/TrackPointExtensionv1.xsd" xmlns:gpxtpx="http://www.garmin.com/xmlschemas/TrackPointExtension/v1">
  <metadata>
    <link href="http://www.compegps.com">
      <text>CompeGPS TEAM, SL</text>
    </link>
    <time>2019-10-07T17:58:15Z</time>
    <bounds maxlat="44.805597" maxlon="6.594789" minlat="44.796710" minlon="6.582689"/>
  </metadata>
  <trk>
    <name>Rando_324</name>
    <trkseg>
      <trkpt lat="44.805596" lon="6.583534">
        <ele>1542.0</ele>
        <time>2019-06-23T06:51:45Z</time>
      </trkpt>
      <trkpt lat="44.805597" lon="6.583537">
        <ele>1542.5</ele>
        <time>2019-06-23T06:51:48Z</time>
      </trkpt>
      <trkpt lat="44.805515" lon="6.583603">
        <ele>1529.5</ele>
        <time>2019-06-23T06:53:44Z</time>
      </trkpt>
      <trkpt lat="44.805378" lon="6.583702">
        <ele>1532.1</ele>
        <time>2019-06-23T06:53:57Z</time>
      </trkpt>
      <trkpt lat="44.805303" lon="6.583740">
        <ele>1534.5</ele>
        <time>2019-06-23T06:54:03Z</time>
      </trkpt>
      <trkpt lat="44.805222" lon="6.583762">
        <ele>1537.5</ele>
        <time>2019-06-23T06:54:09Z</time>
      </trkpt>
      <trkpt lat="44.805145" lon="6.583755">
        <ele>1539.6</ele>
        <time>2019-06-23T06:54:14Z</time>
      </trkpt>
      <trkpt lat="44.805057" lon="6.583777">
        <ele>1543.5</ele>
        <time>2019-06-23T06:54:22Z</time>
      </trkpt>
      <trkpt lat="44.805002" lon="6.583877">
        <ele>1545.0</ele>
        <time>2019-06-23T06:54:31Z</time>
      </trkpt>
      <trkpt lat="44.804977" lon="6.583982">
        <ele>1545.5</ele>
        <time>2019-06-23T06:54:38Z</time>
      </trkpt>
      <trkpt lat="44.804928" lon="6.584078">
        <ele>1546.6</ele>
        <time>2019-06-23T06:54:45Z</time>
      </trkpt>
      <trkpt lat="44.804922" lon="6.584093">
        <ele>1547.0</ele>
        <time>2019-06-23T06:54:46Z</time>
      </trkpt>
      <trkpt lat="44.804797" lon="6.584232">
        <ele>1548.5</ele>
        <time>2019-06-23T06:54:58Z</time>
      </trkpt>
      <trkpt lat="44.804727" lon="6.584255">
        <ele>1548.8</ele>
        <time>2019-06-23T06:55:02Z</time>
      </trkpt>
      <trkpt lat="44.804652" lon="6.584263">
        <ele>1548.5</ele>
        <time>2019-06-23T06:55:06Z</time>
      </trkpt>
      <trkpt lat="44.804580" lon="6.584273">
        <ele>1548.9</ele>
        <time>2019-06-23T06:55:10Z</time>
      </trkpt>
      <trkpt lat="44.804503" lon="6.584262">
        <ele>1548.6</ele>
        <time>2019-06-23T06:55:14Z</time>
      </trkpt>
      <trkpt lat="44.804453" lon="6.584253">
        <ele>1548.6</ele>
        <time>2019-06-23T06:55:17Z</time>
      </trkpt>
      <trkpt lat="44.804382" lon="6.584197">
        <ele>1548.3</ele>
        <time>2019-06-23T06:55:19Z</time>
      </trkpt>
      <trkpt lat="44.804298" lon="6.584202">
        <ele>1544.3</ele>
        <time>2019-06-23T06:55:26Z</time>
      </trkpt>
      <trkpt lat="44.804215" lon="6.584227">
        <ele>1543.5</ele>
        <time>2019-06-23T06:55:32Z</time>
      </trkpt>
      <trkpt lat="44.804130" lon="6.584253">
        <ele>1541.6</ele>
        <time>2019-06-23T06:55:39Z</time>
      </trkpt>
      <trkpt lat="44.804087" lon="6.584355">
        <ele>1537.0</ele>
        <time>2019-06-23T06:55:47Z</time>
      </trkpt>
      <trkpt lat="44.804085" lon="6.584373">
        <ele>1536.4</ele>
        <time>2019-06-23T06:55:48Z</time>
      </trkpt>
      <trkpt lat="44.804010" lon="6.584495">
        <ele>1534.8</ele>
        <time>2019-06-23T06:55:58Z</time>
      </trkpt>
      <trkpt lat="44.803945" lon="6.584562">
        <ele>1533.0</ele>
        <time>2019-06-23T06:56:04Z</time>
      </trkpt>
      <trkpt lat="44.803880" lon="6.584628">
        <ele>1531.6</ele>
        <time>2019-06-23T06:56:10Z</time>
      </trkpt>
      <trkpt lat="44.803793" lon="6.584640">
        <ele>1525.5</ele>
        <time>2019-06-23T06:56:43Z</time>
      </trkpt>
      <trkpt lat="44.803723" lon="6.584572">
        <ele>1526.0</ele>
        <time>2019-06-23T06:56:49Z</time>
      </trkpt>
      <trkpt lat="44.803710" lon="6.584562">
        <ele>1526.0</ele>
        <time>2019-06-23T06:56:50Z</time>
      </trkpt>
      <trkpt lat="44.803560" lon="6.584532">
        <ele>1529.1</ele>
        <time>2019-06-23T06:57:03Z</time>
      </trkpt>
      <trkpt lat="44.803477" lon="6.584552">
        <ele>1532.5</ele>
        <time>2019-06-23T06:57:12Z</time>
      </trkpt>
      <trkpt lat="44.803393" lon="6.584508">
        <ele>1537.5</ele>
        <time>2019-06-23T06:57:25Z</time>
      </trkpt>
      <trkpt lat="44.803375" lon="6.584403">
        <ele>1538.5</ele>
        <time>2019-06-23T06:57:29Z</time>
      </trkpt>
      <trkpt lat="44.803373" lon="6.584292">
        <ele>1540.5</ele>
        <time>2019-06-23T06:57:35Z</time>
      </trkpt>
      <trkpt lat="44.803380" lon="6.584183">
        <ele>1542.1</ele>
        <time>2019-06-23T06:57:41Z</time>
      </trkpt>
      <trkpt lat="44.803358" lon="6.584068">
        <ele>1545.0</ele>
        <time>2019-06-23T06:57:47Z</time>
      </trkpt>
      <trkpt lat="44.803315" lon="6.583958">
        <ele>1548.4</ele>
        <time>2019-06-23T06:57:53Z</time>
      </trkpt>
      <trkpt lat="44.803310" lon="6.583940">
        <ele>1549.1</ele>
        <time>2019-06-23T06:57:54Z</time>
      </trkpt>
      <trkpt lat="44.803218" lon="6.583770">
        <ele>1553.8</ele>
        <time>2019-06-23T06:58:03Z</time>
      </trkpt>
      <trkpt lat="44.803163" lon="6.583682">
        <ele>1555.5</ele>
        <time>2019-06-23T06:58:08Z</time>
      </trkpt>
      <trkpt lat="44.803105" lon="6.583612">
        <ele>1555.5</ele>
        <time>2019-06-23T06:58:11Z</time>
      </trkpt>
      <trkpt lat="44.803060" lon="6.583532">
        <ele>1555.4</ele>
        <time>2019-06-23T06:58:15Z</time>
      </trkpt>
      <trkpt lat="44.803002" lon="6.583485">
        <ele>1555.6</ele>
        <time>2019-06-23T06:58:17Z</time>
      </trkpt>
      <trkpt lat="44.802935" lon="6.583437">
        <ele>1555.9</ele>
        <time>2019-06-23T06:58:19Z</time>
      </trkpt>
      <trkpt lat="44.802912" lon="6.583317">
        <ele>1557.3</ele>
        <time>2019-06-23T06:58:27Z</time>
      </trkpt>
      <trkpt lat="44.802883" lon="6.583215">
        <ele>1560.0</ele>
        <time>2019-06-23T06:58:34Z</time>
      </trkpt>
      <trkpt lat="44.802842" lon="6.583104">
        <ele>1562.3</ele>
        <time>2019-06-23T06:58:41Z</time>
      </trkpt>
      <trkpt lat="44.802770" lon="6.583037">
        <ele>1562.0</ele>
        <time>2019-06-23T06:58:46Z</time>
      </trkpt>
      <trkpt lat="44.802695" lon="6.582997">
        <ele>1560.3</ele>
        <time>2019-06-23T06:58:51Z</time>
      </trkpt>
      <trkpt lat="44.802723" lon="6.583108">
        <ele>1549.6</ele>
        <time>2019-06-23T06:59:03Z</time>
      </trkpt>
      <trkpt lat="44.802732" lon="6.583125">
        <ele>1548.4</ele>
        <time>2019-06-23T06:59:04Z</time>
      </trkpt>
      <trkpt lat="44.802757" lon="6.583327">
        <ele>1541.3</ele>
        <time>2019-06-23T06:59:14Z</time>
      </trkpt>
      <trkpt lat="44.802742" lon="6.583450">
        <ele>1540.0</ele>
        <time>2019-06-23T06:59:23Z</time>
      </trkpt>
      <trkpt lat="44.802667" lon="6.583507">
        <ele>1537.6</ele>
        <time>2019-06-23T06:59:46Z</time>
      </trkpt>
      <trkpt lat="44.802583" lon="6.583472">
        <ele>1537.3</ele>
        <time>2019-06-23T06:59:52Z</time>
      </trkpt>
      <trkpt lat="44.802518" lon="6.583412">
        <ele>1537.5</ele>
        <time>2019-06-23T06:59:57Z</time>
      </trkpt>
      <trkpt lat="44.802462" lon="6.583328">
        <ele>1538.1</ele>
        <time>2019-06-23T07:00:05Z</time>
      </trkpt>
      <trkpt lat="44.802460" lon="6.583312">
        <ele>1538.3</ele>
        <time>2019-06-23T07:00:06Z</time>
      </trkpt>
      <trkpt lat="44.802412" lon="6.583108">
        <ele>1539.0</ele>
        <time>2019-06-23T07:00:20Z</time>
      </trkpt>
      <trkpt lat="44.802345" lon="6.583048">
        <ele>1536.9</ele>
        <time>2019-06-23T07:00:27Z</time>
      </trkpt>
      <trkpt lat="44.802272" lon="6.583017">
        <ele>1534.9</ele>
        <time>2019-06-23T07:00:33Z</time>
      </trkpt>
      <trkpt lat="44.802190" lon="6.582978">
        <ele>1533.1</ele>
        <time>2019-06-23T07:00:41Z</time>
      </trkpt>
      <trkpt lat="44.802105" lon="6.582958">
        <ele>1532.1</ele>
        <time>2019-06-23T07:00:48Z</time>
      </trkpt>
      <trkpt lat="44.802028" lon="6.582912">
        <ele>1533.4</ele>
        <time>2019-06-23T07:00:58Z</time>
      </trkpt>
      <trkpt lat="44.801948" lon="6.582882">
        <ele>1534.0</ele>
        <time>2019-06-23T07:01:05Z</time>
      </trkpt>
      <trkpt lat="44.801863" lon="6.582848">
        <ele>1537.0</ele>
        <time>2019-06-23T07:01:14Z</time>
      </trkpt>
      <trkpt lat="44.801855" lon="6.582847">
        <ele>1537.5</ele>
        <time>2019-06-23T07:01:15Z</time>
      </trkpt>
      <trkpt lat="44.801760" lon="6.582688">
        <ele>1543.9</ele>
        <time>2019-06-23T07:01:35Z</time>
      </trkpt>
      <trkpt lat="44.801830" lon="6.582722">
        <ele>1545.5</ele>
        <time>2019-06-23T07:01:47Z</time>
      </trkpt>
      <trkpt lat="44.801897" lon="6.582793">
        <ele>1545.8</ele>
        <time>2019-06-23T07:01:59Z</time>
      </trkpt>
      <trkpt lat="44.801820" lon="6.582843">
        <ele>1541.0</ele>
        <time>2019-06-23T07:02:24Z</time>
      </trkpt>
      <trkpt lat="44.801813" lon="6.582843">
        <ele>1540.9</ele>
        <time>2019-06-23T07:02:25Z</time>
      </trkpt>
      <trkpt lat="44.801747" lon="6.583060">
        <ele>1538.1</ele>
        <time>2019-06-23T07:03:07Z</time>
      </trkpt>
      <trkpt lat="44.801752" lon="6.583148">
        <ele>1542.1</ele>
        <time>2019-06-23T07:03:32Z</time>
      </trkpt>
      <trkpt lat="44.801755" lon="6.583220">
        <ele>1542.0</ele>
        <time>2019-06-23T07:03:33Z</time>
      </trkpt>
      <trkpt lat="44.801827" lon="6.583352">
        <ele>1548.5</ele>
        <time>2019-06-23T07:03:57Z</time>
      </trkpt>
      <trkpt lat="44.801885" lon="6.583443">
        <ele>1551.5</ele>
        <time>2019-06-23T07:04:11Z</time>
      </trkpt>
      <trkpt lat="44.801913" lon="6.583552">
        <ele>1554.5</ele>
        <time>2019-06-23T07:04:26Z</time>
      </trkpt>
      <trkpt lat="44.801925" lon="6.583672">
        <ele>1558.1</ele>
        <time>2019-06-23T07:04:42Z</time>
      </trkpt>
      <trkpt lat="44.801923" lon="6.583680">
        <ele>1558.5</ele>
        <time>2019-06-23T07:04:43Z</time>
      </trkpt>
      <trkpt lat="44.801932" lon="6.583912">
        <ele>1563.4</ele>
        <time>2019-06-23T07:05:13Z</time>
      </trkpt>
      <trkpt lat="44.801940" lon="6.584033">
        <ele>1566.3</ele>
        <time>2019-06-23T07:05:31Z</time>
      </trkpt>
      <trkpt lat="44.801887" lon="6.584132">
        <ele>1568.0</ele>
        <time>2019-06-23T07:05:50Z</time>
      </trkpt>
      <trkpt lat="44.801882" lon="6.584135">
        <ele>1568.0</ele>
        <time>2019-06-23T07:05:51Z</time>
      </trkpt>
      <trkpt lat="44.801712" lon="6.584133">
        <ele>1571.4</ele>
        <time>2019-06-23T07:06:32Z</time>
      </trkpt>
      <trkpt lat="44.801625" lon="6.584158">
        <ele>1573.0</ele>
        <time>2019-06-23T07:06:49Z</time>
      </trkpt>
      <trkpt lat="44.801545" lon="6.584207">
        <ele>1576.3</ele>
        <time>2019-06-23T07:07:06Z</time>
      </trkpt>
      <trkpt lat="44.801538" lon="6.584207">
        <ele>1576.4</ele>
        <time>2019-06-23T07:07:07Z</time>
      </trkpt>
      <trkpt lat="44.801535" lon="6.584447">
        <ele>1581.8</ele>
        <time>2019-06-23T07:07:35Z</time>
      </trkpt>
      <trkpt lat="44.801535" lon="6.584570">
        <ele>1578.5</ele>
        <time>2019-06-23T07:07:48Z</time>
      </trkpt>
      <trkpt lat="44.801543" lon="6.584692">
        <ele>1574.3</ele>
        <time>2019-06-23T07:08:00Z</time>
      </trkpt>
      <trkpt lat="44.801567" lon="6.584810">
        <ele>1574.0</ele>
        <time>2019-06-23T07:08:13Z</time>
      </trkpt>
      <trkpt lat="44.801572" lon="6.584813">
        <ele>1574.5</ele>
        <time>2019-06-23T07:08:14Z</time>
      </trkpt>
      <trkpt lat="44.801590" lon="6.585047">
        <ele>1585.1</ele>
        <time>2019-06-23T07:08:52Z</time>
      </trkpt>
      <trkpt lat="44.801535" lon="6.585137">
        <ele>1589.3</ele>
        <time>2019-06-23T07:09:08Z</time>
      </trkpt>
      <trkpt lat="44.801483" lon="6.585238">
        <ele>1592.3</ele>
        <time>2019-06-23T07:09:20Z</time>
      </trkpt>
      <trkpt lat="44.801480" lon="6.585243">
        <ele>1592.5</ele>
        <time>2019-06-23T07:09:21Z</time>
      </trkpt>
      <trkpt lat="44.801327" lon="6.585338">
        <ele>1594.5</ele>
        <time>2019-06-23T07:09:48Z</time>
      </trkpt>
      <trkpt lat="44.801242" lon="6.585337">
        <ele>1595.5</ele>
        <time>2019-06-23T07:09:59Z</time>
      </trkpt>
      <trkpt lat="44.801157" lon="6.585323">
        <ele>1597.4</ele>
        <time>2019-06-23T07:10:13Z</time>
      </trkpt>
      <trkpt lat="44.801077" lon="6.585292">
        <ele>1599.0</ele>
        <time>2019-06-23T07:10:26Z</time>
      </trkpt>
      <trkpt lat="44.801070" lon="6.585283">
        <ele>1599.3</ele>
        <time>2019-06-23T07:10:27Z</time>
      </trkpt>
      <trkpt lat="44.800933" lon="6.585162">
        <ele>1604.1</ele>
        <time>2019-06-23T07:10:54Z</time>
      </trkpt>
      <trkpt lat="44.800850" lon="6.585118">
        <ele>1608.0</ele>
        <time>2019-06-23T07:11:10Z</time>
      </trkpt>
      <trkpt lat="44.800770" lon="6.585067">
        <ele>1613.8</ele>
        <time>2019-06-23T07:11:27Z</time>
      </trkpt>
      <trkpt lat="44.800765" lon="6.585062">
        <ele>1614.1</ele>
        <time>2019-06-23T07:11:28Z</time>
      </trkpt>
      <trkpt lat="44.800597" lon="6.585037">
        <ele>1623.8</ele>
        <time>2019-06-23T07:12:00Z</time>
      </trkpt>
      <trkpt lat="44.800517" lon="6.585080">
        <ele>1628.0</ele>
        <time>2019-06-23T07:12:13Z</time>
      </trkpt>
      <trkpt lat="44.800438" lon="6.585140">
        <ele>1631.9</ele>
        <time>2019-06-23T07:12:29Z</time>
      </trkpt>
      <trkpt lat="44.800435" lon="6.585145">
        <ele>1632.0</ele>
        <time>2019-06-23T07:12:30Z</time>
      </trkpt>
      <trkpt lat="44.800347" lon="6.585348">
        <ele>1641.0</ele>
        <time>2019-06-23T07:13:03Z</time>
      </trkpt>
      <trkpt lat="44.800313" lon="6.585458">
        <ele>1644.5</ele>
        <time>2019-06-23T07:13:20Z</time>
      </trkpt>
      <trkpt lat="44.800258" lon="6.585558">
        <ele>1647.3</ele>
        <time>2019-06-23T07:13:37Z</time>
      </trkpt>
      <trkpt lat="44.800255" lon="6.585563">
        <ele>1647.5</ele>
        <time>2019-06-23T07:13:38Z</time>
      </trkpt>
      <trkpt lat="44.800162" lon="6.585755">
        <ele>1652.6</ele>
        <time>2019-06-23T07:14:19Z</time>
      </trkpt>
      <trkpt lat="44.800080" lon="6.585805">
        <ele>1655.0</ele>
        <time>2019-06-23T07:14:40Z</time>
      </trkpt>
      <trkpt lat="44.800075" lon="6.585803">
        <ele>1655.1</ele>
        <time>2019-06-23T07:14:41Z</time>
      </trkpt>
      <trkpt lat="44.799907" lon="6.585827">
        <ele>1658.9</ele>
        <time>2019-06-23T07:15:09Z</time>
      </trkpt>
      <trkpt lat="44.799962" lon="6.585927">
        <ele>1662.4</ele>
        <time>2019-06-23T07:15:29Z</time>
      </trkpt>
      <trkpt lat="44.799992" lon="6.586042">
        <ele>1665.8</ele>
        <time>2019-06-23T07:15:47Z</time>
      </trkpt>
      <trkpt lat="44.799988" lon="6.586048">
        <ele>1666.0</ele>
        <time>2019-06-23T07:15:48Z</time>
      </trkpt>
      <trkpt lat="44.799900" lon="6.586238">
        <ele>1672.4</ele>
        <time>2019-06-23T07:16:38Z</time>
      </trkpt>
      <trkpt lat="44.799822" lon="6.586277">
        <ele>1674.6</ele>
        <time>2019-06-23T07:16:41Z</time>
      </trkpt>
      <trkpt lat="44.799735" lon="6.586247">
        <ele>1675.3</ele>
        <time>2019-06-23T07:16:46Z</time>
      </trkpt>
      <trkpt lat="44.799650" lon="6.586218">
        <ele>1676.4</ele>
        <time>2019-06-23T07:16:55Z</time>
      </trkpt>
      <trkpt lat="44.799647" lon="6.586213">
        <ele>1676.5</ele>
        <time>2019-06-23T07:16:56Z</time>
      </trkpt>
      <trkpt lat="44.799487" lon="6.586162">
        <ele>1680.0</ele>
        <time>2019-06-23T07:17:17Z</time>
      </trkpt>
      <trkpt lat="44.799403" lon="6.586157">
        <ele>1681.6</ele>
        <time>2019-06-23T07:17:28Z</time>
      </trkpt>
      <trkpt lat="44.799332" lon="6.586220">
        <ele>1683.8</ele>
        <time>2019-06-23T07:17:42Z</time>
      </trkpt>
      <trkpt lat="44.799270" lon="6.586303">
        <ele>1686.5</ele>
        <time>2019-06-23T07:17:56Z</time>
      </trkpt>
      <trkpt lat="44.799265" lon="6.586313">
        <ele>1686.8</ele>
        <time>2019-06-23T07:17:57Z</time>
      </trkpt>
      <trkpt lat="44.799145" lon="6.586437">
        <ele>1689.5</ele>
        <time>2019-06-23T07:18:28Z</time>
      </trkpt>
      <trkpt lat="44.799058" lon="6.586467">
        <ele>1692.0</ele>
        <time>2019-06-23T07:18:44Z</time>
      </trkpt>
      <trkpt lat="44.799078" lon="6.586590">
        <ele>1696.0</ele>
        <time>2019-06-23T07:19:06Z</time>
      </trkpt>
      <trkpt lat="44.799082" lon="6.586597">
        <ele>1696.0</ele>
        <time>2019-06-23T07:19:07Z</time>
      </trkpt>
      <trkpt lat="44.799217" lon="6.586743">
        <ele>1701.8</ele>
        <time>2019-06-23T07:19:43Z</time>
      </trkpt>
      <trkpt lat="44.799278" lon="6.586832">
        <ele>1704.5</ele>
        <time>2019-06-23T07:19:58Z</time>
      </trkpt>
      <trkpt lat="44.799333" lon="6.586935">
        <ele>1707.8</ele>
        <time>2019-06-23T07:20:19Z</time>
      </trkpt>
      <trkpt lat="44.799337" lon="6.586943">
        <ele>1708.0</ele>
        <time>2019-06-23T07:20:20Z</time>
      </trkpt>
      <trkpt lat="44.799448" lon="6.587120">
        <ele>1712.5</ele>
        <time>2019-06-23T07:21:36Z</time>
      </trkpt>
      <trkpt lat="44.799452" lon="6.587128">
        <ele>1712.5</ele>
        <time>2019-06-23T07:21:37Z</time>
      </trkpt>
      <trkpt lat="44.799520" lon="6.587340">
        <ele>1716.5</ele>
        <time>2019-06-23T07:22:09Z</time>
      </trkpt>
      <trkpt lat="44.799545" lon="6.587458">
        <ele>1719.0</ele>
        <time>2019-06-23T07:22:25Z</time>
      </trkpt>
      <trkpt lat="44.799518" lon="6.587578">
        <ele>1721.8</ele>
        <time>2019-06-23T07:22:42Z</time>
      </trkpt>
      <trkpt lat="44.799515" lon="6.587583">
        <ele>1722.0</ele>
        <time>2019-06-23T07:22:43Z</time>
      </trkpt>
      <trkpt lat="44.799410" lon="6.587768">
        <ele>1732.5</ele>
        <time>2019-06-23T07:23:14Z</time>
      </trkpt>
      <trkpt lat="44.799465" lon="6.587862">
        <ele>1740.5</ele>
        <time>2019-06-23T07:23:44Z</time>
      </trkpt>
      <trkpt lat="44.799470" lon="6.587863">
        <ele>1740.6</ele>
        <time>2019-06-23T07:23:45Z</time>
      </trkpt>
      <trkpt lat="44.799630" lon="6.587927">
        <ele>1748.4</ele>
        <time>2019-06-23T07:24:25Z</time>
      </trkpt>
      <trkpt lat="44.799682" lon="6.588027">
        <ele>1751.6</ele>
        <time>2019-06-23T07:24:41Z</time>
      </trkpt>
      <trkpt lat="44.799737" lon="6.588120">
        <ele>1754.3</ele>
        <time>2019-06-23T07:24:53Z</time>
      </trkpt>
      <trkpt lat="44.799742" lon="6.588128">
        <ele>1754.6</ele>
        <time>2019-06-23T07:24:54Z</time>
      </trkpt>
      <trkpt lat="44.799840" lon="6.588317">
        <ele>1761.5</ele>
        <time>2019-06-23T07:25:22Z</time>
      </trkpt>
      <trkpt lat="44.799903" lon="6.588398">
        <ele>1763.8</ele>
        <time>2019-06-23T07:25:39Z</time>
      </trkpt>
      <trkpt lat="44.799980" lon="6.588460">
        <ele>1764.5</ele>
        <time>2019-06-23T07:26:03Z</time>
      </trkpt>
      <trkpt lat="44.799983" lon="6.588467">
        <ele>1764.6</ele>
        <time>2019-06-23T07:26:04Z</time>
      </trkpt>
      <trkpt lat="44.800105" lon="6.588600">
        <ele>1771.0</ele>
        <time>2019-06-23T07:26:37Z</time>
      </trkpt>
      <trkpt lat="44.800068" lon="6.588705">
        <ele>1774.3</ele>
        <time>2019-06-23T07:26:55Z</time>
      </trkpt>
      <trkpt lat="44.799990" lon="6.588767">
        <ele>1775.6</ele>
        <time>2019-06-23T07:27:13Z</time>
      </trkpt>
      <trkpt lat="44.799983" lon="6.588770">
        <ele>1775.6</ele>
        <time>2019-06-23T07:27:14Z</time>
      </trkpt>
      <trkpt lat="44.799825" lon="6.588852">
        <ele>1778.8</ele>
        <time>2019-06-23T07:27:45Z</time>
      </trkpt>
      <trkpt lat="44.799760" lon="6.588932">
        <ele>1781.4</ele>
        <time>2019-06-23T07:28:08Z</time>
      </trkpt>
      <trkpt lat="44.799688" lon="6.588997">
        <ele>1782.4</ele>
        <time>2019-06-23T07:28:23Z</time>
      </trkpt>
      <trkpt lat="44.799682" lon="6.589002">
        <ele>1782.4</ele>
        <time>2019-06-23T07:28:24Z</time>
      </trkpt>
      <trkpt lat="44.799683" lon="6.589167">
        <ele>1786.5</ele>
        <time>2019-06-23T07:28:57Z</time>
      </trkpt>
      <trkpt lat="44.799748" lon="6.589250">
        <ele>1789.4</ele>
        <time>2019-06-23T07:29:15Z</time>
      </trkpt>
      <trkpt lat="44.799795" lon="6.589357">
        <ele>1795.3</ele>
        <time>2019-06-23T07:29:34Z</time>
      </trkpt>
      <trkpt lat="44.799792" lon="6.589365">
        <ele>1795.4</ele>
        <time>2019-06-23T07:29:35Z</time>
      </trkpt>
      <trkpt lat="44.799667" lon="6.589500">
        <ele>1806.9</ele>
        <time>2019-06-23T07:30:21Z</time>
      </trkpt>
      <trkpt lat="44.799655" lon="6.589622">
        <ele>1809.8</ele>
        <time>2019-06-23T07:30:41Z</time>
      </trkpt>
      <trkpt lat="44.799650" lon="6.589625">
        <ele>1809.9</ele>
        <time>2019-06-23T07:30:42Z</time>
      </trkpt>
      <trkpt lat="44.799487" lon="6.589640">
        <ele>1814.0</ele>
        <time>2019-06-23T07:31:22Z</time>
      </trkpt>
      <trkpt lat="44.799400" lon="6.589668">
        <ele>1815.0</ele>
        <time>2019-06-23T07:31:35Z</time>
      </trkpt>
      <trkpt lat="44.799320" lon="6.589725">
        <ele>1818.9</ele>
        <time>2019-06-23T07:32:06Z</time>
      </trkpt>
      <trkpt lat="44.799317" lon="6.589730">
        <ele>1819.0</ele>
        <time>2019-06-23T07:32:07Z</time>
      </trkpt>
      <trkpt lat="44.799158" lon="6.589793">
        <ele>1820.0</ele>
        <time>2019-06-23T07:32:29Z</time>
      </trkpt>
      <trkpt lat="44.799073" lon="6.589783">
        <ele>1821.5</ele>
        <time>2019-06-23T07:32:44Z</time>
      </trkpt>
      <trkpt lat="44.798985" lon="6.589803">
        <ele>1823.3</ele>
        <time>2019-06-23T07:33:11Z</time>
      </trkpt>
      <trkpt lat="44.798980" lon="6.589802">
        <ele>1823.4</ele>
        <time>2019-06-23T07:33:12Z</time>
      </trkpt>
      <trkpt lat="44.798815" lon="6.589790">
        <ele>1826.5</ele>
        <time>2019-06-23T07:33:45Z</time>
      </trkpt>
      <trkpt lat="44.798728" lon="6.589793">
        <ele>1828.0</ele>
        <time>2019-06-23T07:34:02Z</time>
      </trkpt>
      <trkpt lat="44.798642" lon="6.589768">
        <ele>1830.8</ele>
        <time>2019-06-23T07:34:26Z</time>
      </trkpt>
      <trkpt lat="44.798637" lon="6.589770">
        <ele>1831.4</ele>
        <time>2019-06-23T07:34:27Z</time>
      </trkpt>
      <trkpt lat="44.798518" lon="6.589737">
        <ele>1841.8</ele>
        <time>2019-06-23T07:36:50Z</time>
      </trkpt>
      <trkpt lat="44.798405" lon="6.589800">
        <ele>1847.3</ele>
        <time>2019-06-23T07:37:17Z</time>
      </trkpt>
      <trkpt lat="44.798460" lon="6.589898">
        <ele>1859.5</ele>
        <time>2019-06-23T07:38:22Z</time>
      </trkpt>
      <trkpt lat="44.798463" lon="6.589897">
        <ele>1860.0</ele>
        <time>2019-06-23T07:38:23Z</time>
      </trkpt>
      <trkpt lat="44.798323" lon="6.589982">
        <ele>1861.4</ele>
        <time>2019-06-23T07:39:02Z</time>
      </trkpt>
      <trkpt lat="44.798243" lon="6.590037">
        <ele>1865.1</ele>
        <time>2019-06-23T07:39:22Z</time>
      </trkpt>
      <trkpt lat="44.798237" lon="6.590037">
        <ele>1865.4</ele>
        <time>2019-06-23T07:39:23Z</time>
      </trkpt>
      <trkpt lat="44.798077" lon="6.590075">
        <ele>1869.5</ele>
        <time>2019-06-23T07:39:53Z</time>
      </trkpt>
      <trkpt lat="44.797990" lon="6.590058">
        <ele>1872.8</ele>
        <time>2019-06-23T07:40:12Z</time>
      </trkpt>
      <trkpt lat="44.797908" lon="6.590083">
        <ele>1878.4</ele>
        <time>2019-06-23T07:40:50Z</time>
      </trkpt>
      <trkpt lat="44.797888" lon="6.590080">
        <ele>1879.8</ele>
        <time>2019-06-23T07:40:51Z</time>
      </trkpt>
      <trkpt lat="44.797877" lon="6.590172">
        <ele>1890.8</ele>
        <time>2019-06-23T07:42:11Z</time>
      </trkpt>
      <trkpt lat="44.797882" lon="6.590183">
        <ele>1890.8</ele>
        <time>2019-06-23T07:42:12Z</time>
      </trkpt>
      <trkpt lat="44.797848" lon="6.590290">
        <ele>1885.0</ele>
        <time>2019-06-23T07:42:37Z</time>
      </trkpt>
      <trkpt lat="44.797760" lon="6.590295">
        <ele>1884.6</ele>
        <time>2019-06-23T07:42:57Z</time>
      </trkpt>
      <trkpt lat="44.797673" lon="6.590303">
        <ele>1886.4</ele>
        <time>2019-06-23T07:43:14Z</time>
      </trkpt>
      <trkpt lat="44.797670" lon="6.590303">
        <ele>1886.5</ele>
        <time>2019-06-23T07:43:15Z</time>
      </trkpt>
      <trkpt lat="44.797587" lon="6.590423">
        <ele>1897.4</ele>
        <time>2019-06-23T07:44:01Z</time>
      </trkpt>
      <trkpt lat="44.797648" lon="6.590515">
        <ele>1900.1</ele>
        <time>2019-06-23T07:44:14Z</time>
      </trkpt>
      <trkpt lat="44.797717" lon="6.590585">
        <ele>1902.4</ele>
        <time>2019-06-23T07:44:30Z</time>
      </trkpt>
      <trkpt lat="44.797723" lon="6.590587">
        <ele>1902.4</ele>
        <time>2019-06-23T07:44:31Z</time>
      </trkpt>
      <trkpt lat="44.797710" lon="6.590645">
        <ele>1909.9</ele>
        <time>2019-06-23T07:45:04Z</time>
      </trkpt>
      <trkpt lat="44.797623" lon="6.590643">
        <ele>1913.0</ele>
        <time>2019-06-23T07:45:16Z</time>
      </trkpt>
      <trkpt lat="44.797540" lon="6.590632">
        <ele>1917.3</ele>
        <time>2019-06-23T07:45:28Z</time>
      </trkpt>
      <trkpt lat="44.797455" lon="6.590635">
        <ele>1920.3</ele>
        <time>2019-06-23T07:45:40Z</time>
      </trkpt>
      <trkpt lat="44.797443" lon="6.590632">
        <ele>1920.5</ele>
        <time>2019-06-23T07:45:41Z</time>
      </trkpt>
      <trkpt lat="44.797302" lon="6.590748">
        <ele>1927.6</ele>
        <time>2019-06-23T07:46:07Z</time>
      </trkpt>
      <trkpt lat="44.797233" lon="6.590830">
        <ele>1930.5</ele>
        <time>2019-06-23T07:46:29Z</time>
      </trkpt>
      <trkpt lat="44.797147" lon="6.590848">
        <ele>1930.5</ele>
        <time>2019-06-23T07:46:41Z</time>
      </trkpt>
      <trkpt lat="44.797142" lon="6.590847">
        <ele>1930.5</ele>
        <time>2019-06-23T07:46:42Z</time>
      </trkpt>
      <trkpt lat="44.796983" lon="6.590808">
        <ele>1932.0</ele>
        <time>2019-06-23T07:47:06Z</time>
      </trkpt>
      <trkpt lat="44.796897" lon="6.590803">
        <ele>1934.0</ele>
        <time>2019-06-23T07:47:25Z</time>
      </trkpt>
      <trkpt lat="44.796930" lon="6.590915">
        <ele>1936.1</ele>
        <time>2019-06-23T07:47:51Z</time>
      </trkpt>
      <trkpt lat="44.796933" lon="6.590923">
        <ele>1936.3</ele>
        <time>2019-06-23T07:47:52Z</time>
      </trkpt>
      <trkpt lat="44.797008" lon="6.591123">
        <ele>1937.5</ele>
        <time>2019-06-23T07:48:16Z</time>
      </trkpt>
      <trkpt lat="44.797067" lon="6.591212">
        <ele>1937.4</ele>
        <time>2019-06-23T07:48:26Z</time>
      </trkpt>
      <trkpt lat="44.797125" lon="6.591302">
        <ele>1938.3</ele>
        <time>2019-06-23T07:49:05Z</time>
      </trkpt>
      <trkpt lat="44.797108" lon="6.591328">
        <ele>1938.5</ele>
        <time>2019-06-23T07:49:06Z</time>
      </trkpt>
      <trkpt lat="44.796967" lon="6.591373">
        <ele>1937.0</ele>
        <time>2019-06-23T07:49:25Z</time>
      </trkpt>
      <trkpt lat="44.797002" lon="6.591483">
        <ele>1936.0</ele>
        <time>2019-06-23T07:49:58Z</time>
      </trkpt>
      <trkpt lat="44.797090" lon="6.591490">
        <ele>1941.0</ele>
        <time>2019-06-23T07:50:15Z</time>
      </trkpt>
      <trkpt lat="44.797097" lon="6.591488">
        <ele>1941.0</ele>
        <time>2019-06-23T07:50:16Z</time>
      </trkpt>
      <trkpt lat="44.796960" lon="6.591658">
        <ele>1952.3</ele>
        <time>2019-06-23T07:51:35Z</time>
      </trkpt>
      <trkpt lat="44.796955" lon="6.591663">
        <ele>1952.5</ele>
        <time>2019-06-23T07:51:36Z</time>
      </trkpt>
      <trkpt lat="44.796843" lon="6.591797">
        <ele>1953.0</ele>
        <time>2019-06-23T07:52:18Z</time>
      </trkpt>
      <trkpt lat="44.796828" lon="6.591917">
        <ele>1952.5</ele>
        <time>2019-06-23T07:52:51Z</time>
      </trkpt>
      <trkpt lat="44.796823" lon="6.591922">
        <ele>1952.5</ele>
        <time>2019-06-23T07:52:52Z</time>
      </trkpt>
      <trkpt lat="44.796785" lon="6.592045">
        <ele>1957.0</ele>
        <time>2019-06-23T07:53:29Z</time>
      </trkpt>
      <trkpt lat="44.796787" lon="6.592163">
        <ele>1957.6</ele>
        <time>2019-06-23T07:53:50Z</time>
      </trkpt>
      <trkpt lat="44.796857" lon="6.592217">
        <ele>1957.6</ele>
        <time>2019-06-23T07:53:59Z</time>
      </trkpt>
      <trkpt lat="44.796868" lon="6.592218">
        <ele>1958.0</ele>
        <time>2019-06-23T07:54:00Z</time>
      </trkpt>
      <trkpt lat="44.797013" lon="6.592135">
        <ele>1964.0</ele>
        <time>2019-06-23T07:54:23Z</time>
      </trkpt>
      <trkpt lat="44.797093" lon="6.592080">
        <ele>1969.6</ele>
        <time>2019-06-23T07:54:35Z</time>
      </trkpt>
      <trkpt lat="44.797182" lon="6.592077">
        <ele>1975.5</ele>
        <time>2019-06-23T07:54:51Z</time>
      </trkpt>
      <trkpt lat="44.797262" lon="6.592033">
        <ele>1979.0</ele>
        <time>2019-06-23T07:55:47Z</time>
      </trkpt>
      <trkpt lat="44.797270" lon="6.592027">
        <ele>1979.0</ele>
        <time>2019-06-23T07:55:48Z</time>
      </trkpt>
      <trkpt lat="44.797435" lon="6.592048">
        <ele>1987.3</ele>
        <time>2019-06-23T07:56:13Z</time>
      </trkpt>
      <trkpt lat="44.797522" lon="6.592050">
        <ele>1991.0</ele>
        <time>2019-06-23T07:56:26Z</time>
      </trkpt>
      <trkpt lat="44.797492" lon="6.592163">
        <ele>1993.6</ele>
        <time>2019-06-23T07:57:09Z</time>
      </trkpt>
      <trkpt lat="44.797483" lon="6.592177">
        <ele>1993.5</ele>
        <time>2019-06-23T07:57:10Z</time>
      </trkpt>
      <trkpt lat="44.797423" lon="6.592372">
        <ele>1994.8</ele>
        <time>2019-06-23T07:57:37Z</time>
      </trkpt>
      <trkpt lat="44.797383" lon="6.592477">
        <ele>2000.6</ele>
        <time>2019-06-23T07:58:07Z</time>
      </trkpt>
      <trkpt lat="44.797332" lon="6.592577">
        <ele>2004.1</ele>
        <time>2019-06-23T07:58:29Z</time>
      </trkpt>
      <trkpt lat="44.797328" lon="6.592582">
        <ele>2004.4</ele>
        <time>2019-06-23T07:58:30Z</time>
      </trkpt>
      <trkpt lat="44.797297" lon="6.592795">
        <ele>2007.0</ele>
        <time>2019-06-23T07:59:32Z</time>
      </trkpt>
      <trkpt lat="44.797290" lon="6.592823">
        <ele>2007.3</ele>
        <time>2019-06-23T07:59:33Z</time>
      </trkpt>
      <trkpt lat="44.797243" lon="6.593020">
        <ele>2013.0</ele>
        <time>2019-06-23T08:00:15Z</time>
      </trkpt>
      <trkpt lat="44.797193" lon="6.593120">
        <ele>2016.4</ele>
        <time>2019-06-23T08:00:28Z</time>
      </trkpt>
      <trkpt lat="44.797150" lon="6.593222">
        <ele>2019.0</ele>
        <time>2019-06-23T08:00:42Z</time>
      </trkpt>
      <trkpt lat="44.797147" lon="6.593230">
        <ele>2019.1</ele>
        <time>2019-06-23T08:00:43Z</time>
      </trkpt>
      <trkpt lat="44.797045" lon="6.593408">
        <ele>2018.5</ele>
        <time>2019-06-23T08:01:30Z</time>
      </trkpt>
      <trkpt lat="44.797002" lon="6.593518">
        <ele>2020.8</ele>
        <time>2019-06-23T08:01:43Z</time>
      </trkpt>
      <trkpt lat="44.796998" lon="6.593525">
        <ele>2020.9</ele>
        <time>2019-06-23T08:01:44Z</time>
      </trkpt>
      <trkpt lat="44.796887" lon="6.593700">
        <ele>2026.3</ele>
        <time>2019-06-23T08:02:16Z</time>
      </trkpt>
      <trkpt lat="44.796803" lon="6.593728">
        <ele>2029.6</ele>
        <time>2019-06-23T08:02:31Z</time>
      </trkpt>
      <trkpt lat="44.796717" lon="6.593752">
        <ele>2033.4</ele>
        <time>2019-06-23T08:02:45Z</time>
      </trkpt>
      <trkpt lat="44.796710" lon="6.593755">
        <ele>2033.5</ele>
        <time>2019-06-23T08:02:46Z</time>
      </trkpt>
      <trkpt lat="44.796810" lon="6.593750">
        <ele>2031.8</ele>
        <time>2019-06-23T08:04:43Z</time>
      </trkpt>
      <trkpt lat="44.796892" lon="6.593963">
        <ele>2037.9</ele>
        <time>2019-06-23T08:05:11Z</time>
      </trkpt>
      <trkpt lat="44.796967" lon="6.594017">
        <ele>2041.5</ele>
        <time>2019-06-23T08:05:23Z</time>
      </trkpt>
      <trkpt lat="44.797047" lon="6.594065">
        <ele>2043.9</ele>
        <time>2019-06-23T08:05:35Z</time>
      </trkpt>
      <trkpt lat="44.797113" lon="6.594140">
        <ele>2046.0</ele>
        <time>2019-06-23T08:05:48Z</time>
      </trkpt>
      <trkpt lat="44.797118" lon="6.594142">
        <ele>2046.4</ele>
        <time>2019-06-23T08:05:49Z</time>
      </trkpt>
      <trkpt lat="44.797250" lon="6.594285">
        <ele>2048.8</ele>
        <time>2019-06-23T08:06:38Z</time>
      </trkpt>
      <trkpt lat="44.797315" lon="6.594365">
        <ele>2050.3</ele>
        <time>2019-06-23T08:06:49Z</time>
      </trkpt>
      <trkpt lat="44.797322" lon="6.594373">
        <ele>2050.5</ele>
        <time>2019-06-23T08:06:50Z</time>
      </trkpt>
      <trkpt lat="44.797385" lon="6.594580">
        <ele>2051.6</ele>
        <time>2019-06-23T08:07:17Z</time>
      </trkpt>
      <trkpt lat="44.797325" lon="6.594788">
        <ele>2054.0</ele>
        <time>2019-06-23T11:37:01Z</time>
      </trkpt>
      <trkpt lat="44.797327" lon="6.594568">
        <ele>2054.8</ele>
        <time>2019-06-23T11:37:25Z</time>
      </trkpt>
      <trkpt lat="44.797347" lon="6.594453">
        <ele>2054.3</ele>
        <time>2019-06-23T11:37:35Z</time>
      </trkpt>
      <trkpt lat="44.797302" lon="6.594355">
        <ele>2053.5</ele>
        <time>2019-06-23T11:37:42Z</time>
      </trkpt>
      <trkpt lat="44.797247" lon="6.594262">
        <ele>2052.1</ele>
        <time>2019-06-23T11:37:50Z</time>
      </trkpt>
      <trkpt lat="44.797163" lon="6.594228">
        <ele>2051.6</ele>
        <time>2019-06-23T11:37:58Z</time>
      </trkpt>
      <trkpt lat="44.797122" lon="6.594125">
        <ele>2049.3</ele>
        <time>2019-06-23T11:38:37Z</time>
      </trkpt>
      <trkpt lat="44.797110" lon="6.594122">
        <ele>2049.1</ele>
        <time>2019-06-23T11:38:38Z</time>
      </trkpt>
      <trkpt lat="44.796970" lon="6.594010">
        <ele>2047.6</ele>
        <time>2019-06-23T11:38:55Z</time>
      </trkpt>
      <trkpt lat="44.796897" lon="6.593968">
        <ele>2046.1</ele>
        <time>2019-06-23T11:39:41Z</time>
      </trkpt>
      <trkpt lat="44.796885" lon="6.593965">
        <ele>2046.0</ele>
        <time>2019-06-23T11:39:42Z</time>
      </trkpt>
      <trkpt lat="44.796787" lon="6.593802">
        <ele>2044.6</ele>
        <time>2019-06-23T11:39:57Z</time>
      </trkpt>
      <trkpt lat="44.796830" lon="6.593692">
        <ele>2041.5</ele>
        <time>2019-06-23T11:40:10Z</time>
      </trkpt>
      <trkpt lat="44.796897" lon="6.593615">
        <ele>2038.3</ele>
        <time>2019-06-23T11:40:19Z</time>
      </trkpt>
      <trkpt lat="44.796962" lon="6.593538">
        <ele>2035.4</ele>
        <time>2019-06-23T11:40:28Z</time>
      </trkpt>
      <trkpt lat="44.797005" lon="6.593432">
        <ele>2032.3</ele>
        <time>2019-06-23T11:40:38Z</time>
      </trkpt>
      <trkpt lat="44.797053" lon="6.593337">
        <ele>2029.8</ele>
        <time>2019-06-23T11:40:47Z</time>
      </trkpt>
      <trkpt lat="44.797057" lon="6.593327">
        <ele>2029.5</ele>
        <time>2019-06-23T11:40:48Z</time>
      </trkpt>
      <trkpt lat="44.797145" lon="6.593128">
        <ele>2024.5</ele>
        <time>2019-06-23T11:41:36Z</time>
      </trkpt>
      <trkpt lat="44.797190" lon="6.593022">
        <ele>2022.3</ele>
        <time>2019-06-23T11:41:44Z</time>
      </trkpt>
      <trkpt lat="44.797247" lon="6.592923">
        <ele>2019.3</ele>
        <time>2019-06-23T11:42:03Z</time>
      </trkpt>
      <trkpt lat="44.797253" lon="6.592915">
        <ele>2019.3</ele>
        <time>2019-06-23T11:42:04Z</time>
      </trkpt>
      <trkpt lat="44.797392" lon="6.592795">
        <ele>2014.9</ele>
        <time>2019-06-23T11:42:23Z</time>
      </trkpt>
      <trkpt lat="44.797460" lon="6.592725">
        <ele>2013.5</ele>
        <time>2019-06-23T11:42:35Z</time>
      </trkpt>
      <trkpt lat="44.797530" lon="6.592657">
        <ele>2011.5</ele>
        <time>2019-06-23T11:42:45Z</time>
      </trkpt>
      <trkpt lat="44.797543" lon="6.592538">
        <ele>2008.0</ele>
        <time>2019-06-23T11:42:54Z</time>
      </trkpt>
      <trkpt lat="44.797560" lon="6.592427">
        <ele>2004.9</ele>
        <time>2019-06-23T11:43:01Z</time>
      </trkpt>
      <trkpt lat="44.797573" lon="6.592308">
        <ele>2001.4</ele>
        <time>2019-06-23T11:43:10Z</time>
      </trkpt>
      <trkpt lat="44.797575" lon="6.592297">
        <ele>2001.0</ele>
        <time>2019-06-23T11:43:11Z</time>
      </trkpt>
      <trkpt lat="44.797530" lon="6.592085">
        <ele>1996.6</ele>
        <time>2019-06-23T11:43:26Z</time>
      </trkpt>
      <trkpt lat="44.797525" lon="6.591965">
        <ele>1994.0</ele>
        <time>2019-06-23T11:43:37Z</time>
      </trkpt>
      <trkpt lat="44.797440" lon="6.591937">
        <ele>1991.0</ele>
        <time>2019-06-23T11:43:48Z</time>
      </trkpt>
      <trkpt lat="44.797355" lon="6.591947">
        <ele>1988.9</ele>
        <time>2019-06-23T11:43:57Z</time>
      </trkpt>
      <trkpt lat="44.797270" lon="6.591950">
        <ele>1986.8</ele>
        <time>2019-06-23T11:44:08Z</time>
      </trkpt>
      <trkpt lat="44.797187" lon="6.591945">
        <ele>1986.9</ele>
        <time>2019-06-23T11:44:18Z</time>
      </trkpt>
      <trkpt lat="44.797173" lon="6.591947">
        <ele>1987.1</ele>
        <time>2019-06-23T11:44:19Z</time>
      </trkpt>
      <trkpt lat="44.797020" lon="6.591965">
        <ele>1990.9</ele>
        <time>2019-06-23T11:44:38Z</time>
      </trkpt>
      <trkpt lat="44.797015" lon="6.591845">
        <ele>1990.0</ele>
        <time>2019-06-23T11:44:47Z</time>
      </trkpt>
      <trkpt lat="44.797037" lon="6.591738">
        <ele>1988.5</ele>
        <time>2019-06-23T11:44:52Z</time>
      </trkpt>
      <trkpt lat="44.797083" lon="6.591642">
        <ele>1986.0</ele>
        <time>2019-06-23T11:44:59Z</time>
      </trkpt>
      <trkpt lat="44.797147" lon="6.591557">
        <ele>1981.9</ele>
        <time>2019-06-23T11:45:10Z</time>
      </trkpt>
      <trkpt lat="44.797078" lon="6.591630">
        <ele>1974.9</ele>
        <time>2019-06-23T11:45:30Z</time>
      </trkpt>
      <trkpt lat="44.797072" lon="6.591630">
        <ele>1974.5</ele>
        <time>2019-06-23T11:45:31Z</time>
      </trkpt>
      <trkpt lat="44.796913" lon="6.591589">
        <ele>1971.3</ele>
        <time>2019-06-23T11:45:55Z</time>
      </trkpt>
      <trkpt lat="44.796875" lon="6.591480">
        <ele>1969.3</ele>
        <time>2019-06-23T11:46:05Z</time>
      </trkpt>
      <trkpt lat="44.796882" lon="6.591355">
        <ele>1966.8</ele>
        <time>2019-06-23T11:46:15Z</time>
      </trkpt>
      <trkpt lat="44.796882" lon="6.591237">
        <ele>1963.4</ele>
        <time>2019-06-23T11:46:29Z</time>
      </trkpt>
      <trkpt lat="44.796967" lon="6.591215">
        <ele>1959.0</ele>
        <time>2019-06-23T11:46:42Z</time>
      </trkpt>
      <trkpt lat="44.796973" lon="6.591212">
        <ele>1958.5</ele>
        <time>2019-06-23T11:46:43Z</time>
      </trkpt>
      <trkpt lat="44.796975" lon="6.591105">
        <ele>1946.9</ele>
        <time>2019-06-23T11:47:18Z</time>
      </trkpt>
      <trkpt lat="44.796913" lon="6.591018">
        <ele>1945.4</ele>
        <time>2019-06-23T11:47:27Z</time>
      </trkpt>
      <trkpt lat="44.796895" lon="6.590913">
        <ele>1944.4</ele>
        <time>2019-06-23T11:47:33Z</time>
      </trkpt>
      <trkpt lat="44.796868" lon="6.590803">
        <ele>1942.4</ele>
        <time>2019-06-23T11:47:42Z</time>
      </trkpt>
      <trkpt lat="44.796918" lon="6.590707">
        <ele>1938.9</ele>
        <time>2019-06-23T11:47:58Z</time>
      </trkpt>
      <trkpt lat="44.796927" lon="6.590705">
        <ele>1938.5</ele>
        <time>2019-06-23T11:47:59Z</time>
      </trkpt>
      <trkpt lat="44.797068" lon="6.590787">
        <ele>1932.9</ele>
        <time>2019-06-23T11:48:14Z</time>
      </trkpt>
      <trkpt lat="44.797152" lon="6.590817">
        <ele>1929.6</ele>
        <time>2019-06-23T11:48:21Z</time>
      </trkpt>
      <trkpt lat="44.797240" lon="6.590822">
        <ele>1925.4</ele>
        <time>2019-06-23T11:48:29Z</time>
      </trkpt>
      <trkpt lat="44.797317" lon="6.590845">
        <ele>1920.3</ele>
        <time>2019-06-23T11:48:36Z</time>
      </trkpt>
      <trkpt lat="44.797383" lon="6.590775">
        <ele>1913.8</ele>
        <time>2019-06-23T11:48:52Z</time>
      </trkpt>
      <trkpt lat="44.797463" lon="6.590748">
        <ele>1905.3</ele>
        <time>2019-06-23T11:49:03Z</time>
      </trkpt>
      <trkpt lat="44.797477" lon="6.590750">
        <ele>1904.6</ele>
        <time>2019-06-23T11:49:04Z</time>
      </trkpt>
      <trkpt lat="44.797628" lon="6.590780">
        <ele>1897.6</ele>
        <time>2019-06-23T11:49:15Z</time>
      </trkpt>
      <trkpt lat="44.797715" lon="6.590790">
        <ele>1893.8</ele>
        <time>2019-06-23T11:49:23Z</time>
      </trkpt>
      <trkpt lat="44.797802" lon="6.590797">
        <ele>1888.5</ele>
        <time>2019-06-23T11:49:31Z</time>
      </trkpt>
      <trkpt lat="44.797885" lon="6.590827">
        <ele>1886.0</ele>
        <time>2019-06-23T11:49:38Z</time>
      </trkpt>
      <trkpt lat="44.797808" lon="6.590803">
        <ele>1884.0</ele>
        <time>2019-06-23T11:49:50Z</time>
      </trkpt>
      <trkpt lat="44.797725" lon="6.590770">
        <ele>1883.0</ele>
        <time>2019-06-23T11:49:58Z</time>
      </trkpt>
      <trkpt lat="44.797665" lon="6.590692">
        <ele>1879.8</ele>
        <time>2019-06-23T11:50:07Z</time>
      </trkpt>
      <trkpt lat="44.797653" lon="6.590677">
        <ele>1879.5</ele>
        <time>2019-06-23T11:50:08Z</time>
      </trkpt>
      <trkpt lat="44.797588" lon="6.590507">
        <ele>1876.9</ele>
        <time>2019-06-23T11:50:25Z</time>
      </trkpt>
      <trkpt lat="44.797648" lon="6.590442">
        <ele>1875.5</ele>
        <time>2019-06-23T11:50:31Z</time>
      </trkpt>
      <trkpt lat="44.797730" lon="6.590425">
        <ele>1873.5</ele>
        <time>2019-06-23T11:50:39Z</time>
      </trkpt>
      <trkpt lat="44.797812" lon="6.590455">
        <ele>1870.0</ele>
        <time>2019-06-23T11:50:47Z</time>
      </trkpt>
      <trkpt lat="44.797898" lon="6.590460">
        <ele>1865.6</ele>
        <time>2019-06-23T11:50:59Z</time>
      </trkpt>
      <trkpt lat="44.797987" lon="6.590477">
        <ele>1862.9</ele>
        <time>2019-06-23T11:51:19Z</time>
      </trkpt>
      <trkpt lat="44.797997" lon="6.590483">
        <ele>1862.6</ele>
        <time>2019-06-23T11:51:20Z</time>
      </trkpt>
      <trkpt lat="44.797942" lon="6.590343">
        <ele>1858.4</ele>
        <time>2019-06-23T11:51:45Z</time>
      </trkpt>
      <trkpt lat="44.798025" lon="6.590317">
        <ele>1853.8</ele>
        <time>2019-06-23T11:51:56Z</time>
      </trkpt>
      <trkpt lat="44.798075" lon="6.590217">
        <ele>1850.8</ele>
        <time>2019-06-23T11:52:14Z</time>
      </trkpt>
      <trkpt lat="44.798158" lon="6.590262">
        <ele>1847.8</ele>
        <time>2019-06-23T11:52:25Z</time>
      </trkpt>
      <trkpt lat="44.798167" lon="6.590262">
        <ele>1847.4</ele>
        <time>2019-06-23T11:52:26Z</time>
      </trkpt>
      <trkpt lat="44.798332" lon="6.590250">
        <ele>1843.0</ele>
        <time>2019-06-23T11:53:33Z</time>
      </trkpt>
      <trkpt lat="44.798340" lon="6.590247">
        <ele>1843.0</ele>
        <time>2019-06-23T11:53:34Z</time>
      </trkpt>
      <trkpt lat="44.798478" lon="6.590147">
        <ele>1841.9</ele>
        <time>2019-06-23T11:53:50Z</time>
      </trkpt>
      <trkpt lat="44.798435" lon="6.590040">
        <ele>1835.4</ele>
        <time>2019-06-23T11:54:35Z</time>
      </trkpt>
      <trkpt lat="44.798430" lon="6.590030">
        <ele>1835.3</ele>
        <time>2019-06-23T11:54:36Z</time>
      </trkpt>
      <trkpt lat="44.798545" lon="6.589865">
        <ele>1830.5</ele>
        <time>2019-06-23T11:55:02Z</time>
      </trkpt>
      <trkpt lat="44.798628" lon="6.589825">
        <ele>1828.1</ele>
        <time>2019-06-23T11:55:13Z</time>
      </trkpt>
      <trkpt lat="44.798715" lon="6.589808">
        <ele>1826.5</ele>
        <time>2019-06-23T11:55:26Z</time>
      </trkpt>
      <trkpt lat="44.798798" lon="6.589855">
        <ele>1824.4</ele>
        <time>2019-06-23T11:55:36Z</time>
      </trkpt>
      <trkpt lat="44.798807" lon="6.589857">
        <ele>1824.1</ele>
        <time>2019-06-23T11:55:37Z</time>
      </trkpt>
      <trkpt lat="44.798965" lon="6.589860">
        <ele>1817.5</ele>
        <time>2019-06-23T11:56:03Z</time>
      </trkpt>
      <trkpt lat="44.799048" lon="6.589868">
        <ele>1814.5</ele>
        <time>2019-06-23T11:56:13Z</time>
      </trkpt>
      <trkpt lat="44.799137" lon="6.589868">
        <ele>1810.5</ele>
        <time>2019-06-23T11:56:26Z</time>
      </trkpt>
      <trkpt lat="44.799217" lon="6.589842">
        <ele>1805.9</ele>
        <time>2019-06-23T11:56:38Z</time>
      </trkpt>
      <trkpt lat="44.799225" lon="6.589840">
        <ele>1805.5</ele>
        <time>2019-06-23T11:56:39Z</time>
      </trkpt>
      <trkpt lat="44.799385" lon="6.589838">
        <ele>1796.6</ele>
        <time>2019-06-23T11:57:02Z</time>
      </trkpt>
      <trkpt lat="44.799470" lon="6.589820">
        <ele>1791.5</ele>
        <time>2019-06-23T11:57:16Z</time>
      </trkpt>
      <trkpt lat="44.799557" lon="6.589810">
        <ele>1788.1</ele>
        <time>2019-06-23T11:57:28Z</time>
      </trkpt>
      <trkpt lat="44.799642" lon="6.589782">
        <ele>1784.1</ele>
        <time>2019-06-23T11:57:40Z</time>
      </trkpt>
      <trkpt lat="44.799653" lon="6.589780">
        <ele>1784.0</ele>
        <time>2019-06-23T11:57:41Z</time>
      </trkpt>
      <trkpt lat="44.799735" lon="6.589680">
        <ele>1776.1</ele>
        <time>2019-06-23T11:58:10Z</time>
      </trkpt>
      <trkpt lat="44.799747" lon="6.589558">
        <ele>1771.5</ele>
        <time>2019-06-23T11:58:25Z</time>
      </trkpt>
      <trkpt lat="44.799832" lon="6.589553">
        <ele>1768.1</ele>
        <time>2019-06-23T11:58:38Z</time>
      </trkpt>
      <trkpt lat="44.799830" lon="6.589437">
        <ele>1765.1</ele>
        <time>2019-06-23T11:58:50Z</time>
      </trkpt>
      <trkpt lat="44.799827" lon="6.589425">
        <ele>1765.0</ele>
        <time>2019-06-23T11:58:51Z</time>
      </trkpt>
      <trkpt lat="44.799690" lon="6.589303">
        <ele>1764.4</ele>
        <time>2019-06-23T11:59:11Z</time>
      </trkpt>
      <trkpt lat="44.799672" lon="6.589190">
        <ele>1764.3</ele>
        <time>2019-06-23T11:59:20Z</time>
      </trkpt>
      <trkpt lat="44.799727" lon="6.589095">
        <ele>1763.5</ele>
        <time>2019-06-23T11:59:31Z</time>
      </trkpt>
      <trkpt lat="44.799795" lon="6.589017">
        <ele>1762.8</ele>
        <time>2019-06-23T11:59:44Z</time>
      </trkpt>
      <trkpt lat="44.799865" lon="6.588952">
        <ele>1759.5</ele>
        <time>2019-06-23T11:59:55Z</time>
      </trkpt>
      <trkpt lat="44.799873" lon="6.588948">
        <ele>1759.0</ele>
        <time>2019-06-23T11:59:56Z</time>
      </trkpt>
      <trkpt lat="44.800038" lon="6.588922">
        <ele>1750.1</ele>
        <time>2019-06-23T12:00:14Z</time>
      </trkpt>
      <trkpt lat="44.800123" lon="6.588900">
        <ele>1744.3</ele>
        <time>2019-06-23T12:00:24Z</time>
      </trkpt>
      <trkpt lat="44.800157" lon="6.588787">
        <ele>1741.0</ele>
        <time>2019-06-23T12:00:36Z</time>
      </trkpt>
      <trkpt lat="44.800125" lon="6.588668">
        <ele>1737.0</ele>
        <time>2019-06-23T12:00:47Z</time>
      </trkpt>
      <trkpt lat="44.800045" lon="6.588618">
        <ele>1735.8</ele>
        <time>2019-06-23T12:00:58Z</time>
      </trkpt>
      <trkpt lat="44.800035" lon="6.588617">
        <ele>1735.5</ele>
        <time>2019-06-23T12:00:59Z</time>
      </trkpt>
      <trkpt lat="44.799893" lon="6.588538">
        <ele>1733.0</ele>
        <time>2019-06-23T12:01:15Z</time>
      </trkpt>
      <trkpt lat="44.799813" lon="6.588487">
        <ele>1732.9</ele>
        <time>2019-06-23T12:01:26Z</time>
      </trkpt>
      <trkpt lat="44.799760" lon="6.588387">
        <ele>1731.5</ele>
        <time>2019-06-23T12:01:36Z</time>
      </trkpt>
      <trkpt lat="44.799725" lon="6.588280">
        <ele>1733.0</ele>
        <time>2019-06-23T12:01:42Z</time>
      </trkpt>
      <trkpt lat="44.799695" lon="6.588170">
        <ele>1728.8</ele>
        <time>2019-06-23T12:01:53Z</time>
      </trkpt>
      <trkpt lat="44.799633" lon="6.588088">
        <ele>1728.9</ele>
        <time>2019-06-23T12:01:59Z</time>
      </trkpt>
      <trkpt lat="44.799625" lon="6.588075">
        <ele>1729.1</ele>
        <time>2019-06-23T12:02:00Z</time>
      </trkpt>
      <trkpt lat="44.799480" lon="6.588022">
        <ele>1729.0</ele>
        <time>2019-06-23T12:02:15Z</time>
      </trkpt>
      <trkpt lat="44.799432" lon="6.587920">
        <ele>1725.5</ele>
        <time>2019-06-23T12:02:24Z</time>
      </trkpt>
      <trkpt lat="44.799370" lon="6.587858">
        <ele>1724.5</ele>
        <time>2019-06-23T12:02:30Z</time>
      </trkpt>
      <trkpt lat="44.799308" lon="6.587767">
        <ele>1724.6</ele>
        <time>2019-06-23T12:02:38Z</time>
      </trkpt>
      <trkpt lat="44.799357" lon="6.587677">
        <ele>1726.8</ele>
        <time>2019-06-23T12:02:46Z</time>
      </trkpt>
      <trkpt lat="44.799400" lon="6.587577">
        <ele>1726.5</ele>
        <time>2019-06-23T12:02:54Z</time>
      </trkpt>
      <trkpt lat="44.799422" lon="6.587462">
        <ele>1730.0</ele>
        <time>2019-06-23T12:03:01Z</time>
      </trkpt>
      <trkpt lat="44.799423" lon="6.587445">
        <ele>1730.9</ele>
        <time>2019-06-23T12:03:02Z</time>
      </trkpt>
      <trkpt lat="44.799425" lon="6.587218">
        <ele>1732.5</ele>
        <time>2019-06-23T12:03:20Z</time>
      </trkpt>
      <trkpt lat="44.799445" lon="6.587098">
        <ele>1728.4</ele>
        <time>2019-06-23T12:03:32Z</time>
      </trkpt>
      <trkpt lat="44.799402" lon="6.586988">
        <ele>1719.5</ele>
        <time>2019-06-23T12:03:53Z</time>
      </trkpt>
      <trkpt lat="44.799325" lon="6.586928">
        <ele>1717.0</ele>
        <time>2019-06-23T12:04:02Z</time>
      </trkpt>
      <trkpt lat="44.799317" lon="6.586925">
        <ele>1716.8</ele>
        <time>2019-06-23T12:04:03Z</time>
      </trkpt>
      <trkpt lat="44.799192" lon="6.586792">
        <ele>1709.5</ele>
        <time>2019-06-23T12:04:24Z</time>
      </trkpt>
      <trkpt lat="44.799110" lon="6.586748">
        <ele>1706.6</ele>
        <time>2019-06-23T12:04:33Z</time>
      </trkpt>
      <trkpt lat="44.799057" lon="6.586655">
        <ele>1703.5</ele>
        <time>2019-06-23T12:04:42Z</time>
      </trkpt>
      <trkpt lat="44.798985" lon="6.586582">
        <ele>1700.5</ele>
        <time>2019-06-23T12:04:53Z</time>
      </trkpt>
      <trkpt lat="44.798918" lon="6.586498">
        <ele>1697.5</ele>
        <time>2019-06-23T12:05:03Z</time>
      </trkpt>
      <trkpt lat="44.798913" lon="6.586492">
        <ele>1696.9</ele>
        <time>2019-06-23T12:05:04Z</time>
      </trkpt>
      <trkpt lat="44.799060" lon="6.586390">
        <ele>1690.3</ele>
        <time>2019-06-23T12:05:21Z</time>
      </trkpt>
      <trkpt lat="44.799140" lon="6.586342">
        <ele>1685.9</ele>
        <time>2019-06-23T12:05:30Z</time>
      </trkpt>
      <trkpt lat="44.799215" lon="6.586317">
        <ele>1683.5</ele>
        <time>2019-06-23T12:05:35Z</time>
      </trkpt>
      <trkpt lat="44.799282" lon="6.586238">
        <ele>1679.5</ele>
        <time>2019-06-23T12:05:54Z</time>
      </trkpt>
      <trkpt lat="44.799340" lon="6.586152">
        <ele>1675.8</ele>
        <time>2019-06-23T12:06:23Z</time>
      </trkpt>
      <trkpt lat="44.799350" lon="6.586150">
        <ele>1675.5</ele>
        <time>2019-06-23T12:06:24Z</time>
      </trkpt>
      <trkpt lat="44.799508" lon="6.586107">
        <ele>1672.4</ele>
        <time>2019-06-23T12:06:38Z</time>
      </trkpt>
      <trkpt lat="44.799578" lon="6.586152">
        <ele>1670.0</ele>
        <time>2019-06-23T12:06:44Z</time>
      </trkpt>
      <trkpt lat="44.799652" lon="6.586207">
        <ele>1666.5</ele>
        <time>2019-06-23T12:06:51Z</time>
      </trkpt>
      <trkpt lat="44.799725" lon="6.586248">
        <ele>1663.0</ele>
        <time>2019-06-23T12:06:58Z</time>
      </trkpt>
      <trkpt lat="44.799807" lon="6.586287">
        <ele>1659.1</ele>
        <time>2019-06-23T12:07:05Z</time>
      </trkpt>
      <trkpt lat="44.799882" lon="6.586248">
        <ele>1655.5</ele>
        <time>2019-06-23T12:07:15Z</time>
      </trkpt>
      <trkpt lat="44.799950" lon="6.586173">
        <ele>1653.9</ele>
        <time>2019-06-23T12:07:23Z</time>
      </trkpt>
      <trkpt lat="44.799978" lon="6.586055">
        <ele>1649.1</ele>
        <time>2019-06-23T12:07:36Z</time>
      </trkpt>
      <trkpt lat="44.799977" lon="6.586048">
        <ele>1648.9</ele>
        <time>2019-06-23T12:07:37Z</time>
      </trkpt>
      <trkpt lat="44.799965" lon="6.585862">
        <ele>1641.1</ele>
        <time>2019-06-23T12:08:37Z</time>
      </trkpt>
      <trkpt lat="44.799968" lon="6.585855">
        <ele>1641.0</ele>
        <time>2019-06-23T12:08:38Z</time>
      </trkpt>
      <trkpt lat="44.800125" lon="6.585793">
        <ele>1634.6</ele>
        <time>2019-06-23T12:09:44Z</time>
      </trkpt>
      <trkpt lat="44.800130" lon="6.585792">
        <ele>1634.5</ele>
        <time>2019-06-23T12:09:45Z</time>
      </trkpt>
      <trkpt lat="44.800258" lon="6.585660">
        <ele>1630.1</ele>
        <time>2019-06-23T12:10:09Z</time>
      </trkpt>
      <trkpt lat="44.800320" lon="6.585570">
        <ele>1628.0</ele>
        <time>2019-06-23T12:10:28Z</time>
      </trkpt>
      <trkpt lat="44.800317" lon="6.585447">
        <ele>1625.9</ele>
        <time>2019-06-23T12:10:40Z</time>
      </trkpt>
      <trkpt lat="44.800363" lon="6.585345">
        <ele>1624.6</ele>
        <time>2019-06-23T12:11:24Z</time>
      </trkpt>
      <trkpt lat="44.800368" lon="6.585338">
        <ele>1624.6</ele>
        <time>2019-06-23T12:11:25Z</time>
      </trkpt>
      <trkpt lat="44.800442" lon="6.585140">
        <ele>1622.3</ele>
        <time>2019-06-23T12:11:41Z</time>
      </trkpt>
      <trkpt lat="44.800487" lon="6.585045">
        <ele>1620.6</ele>
        <time>2019-06-23T12:11:52Z</time>
      </trkpt>
      <trkpt lat="44.800568" lon="6.585010">
        <ele>1618.9</ele>
        <time>2019-06-23T12:11:59Z</time>
      </trkpt>
      <trkpt lat="44.800652" lon="6.585002">
        <ele>1616.8</ele>
        <time>2019-06-23T12:12:06Z</time>
      </trkpt>
      <trkpt lat="44.800738" lon="6.585010">
        <ele>1613.8</ele>
        <time>2019-06-23T12:12:15Z</time>
      </trkpt>
      <trkpt lat="44.800820" lon="6.585060">
        <ele>1610.5</ele>
        <time>2019-06-23T12:12:23Z</time>
      </trkpt>
      <trkpt lat="44.800893" lon="6.585127">
        <ele>1608.0</ele>
        <time>2019-06-23T12:12:31Z</time>
      </trkpt>
      <trkpt lat="44.800902" lon="6.585135">
        <ele>1607.6</ele>
        <time>2019-06-23T12:12:32Z</time>
      </trkpt>
      <trkpt lat="44.801047" lon="6.585225">
        <ele>1600.5</ele>
        <time>2019-06-23T12:12:54Z</time>
      </trkpt>
      <trkpt lat="44.801122" lon="6.585285">
        <ele>1597.1</ele>
        <time>2019-06-23T12:13:03Z</time>
      </trkpt>
      <trkpt lat="44.801202" lon="6.585308">
        <ele>1593.4</ele>
        <time>2019-06-23T12:13:15Z</time>
      </trkpt>
      <trkpt lat="44.801290" lon="6.585317">
        <ele>1591.0</ele>
        <time>2019-06-23T12:13:23Z</time>
      </trkpt>
      <trkpt lat="44.801373" lon="6.585283">
        <ele>1588.5</ele>
        <time>2019-06-23T12:13:32Z</time>
      </trkpt>
      <trkpt lat="44.801382" lon="6.585278">
        <ele>1588.1</ele>
        <time>2019-06-23T12:13:33Z</time>
      </trkpt>
      <trkpt lat="44.801535" lon="6.585225">
        <ele>1583.8</ele>
        <time>2019-06-23T12:13:48Z</time>
      </trkpt>
      <trkpt lat="44.801593" lon="6.585132">
        <ele>1581.3</ele>
        <time>2019-06-23T12:13:57Z</time>
      </trkpt>
      <trkpt lat="44.801658" lon="6.585058">
        <ele>1579.4</ele>
        <time>2019-06-23T12:14:05Z</time>
      </trkpt>
      <trkpt lat="44.801705" lon="6.584957">
        <ele>1576.5</ele>
        <time>2019-06-23T12:14:16Z</time>
      </trkpt>
      <trkpt lat="44.801685" lon="6.584842">
        <ele>1574.6</ele>
        <time>2019-06-23T12:14:24Z</time>
      </trkpt>
      <trkpt lat="44.801645" lon="6.584733">
        <ele>1573.1</ele>
        <time>2019-06-23T12:14:34Z</time>
      </trkpt>
      <trkpt lat="44.801642" lon="6.584722">
        <ele>1573.0</ele>
        <time>2019-06-23T12:14:35Z</time>
      </trkpt>
      <trkpt lat="44.801585" lon="6.584512">
        <ele>1571.8</ele>
        <time>2019-06-23T12:14:52Z</time>
      </trkpt>
      <trkpt lat="44.801585" lon="6.584390">
        <ele>1571.5</ele>
        <time>2019-06-23T12:15:00Z</time>
      </trkpt>
      <trkpt lat="44.801587" lon="6.584265">
        <ele>1571.9</ele>
        <time>2019-06-23T12:15:08Z</time>
      </trkpt>
      <trkpt lat="44.801572" lon="6.584160">
        <ele>1572.1</ele>
        <time>2019-06-23T12:15:15Z</time>
      </trkpt>
      <trkpt lat="44.801620" lon="6.584057">
        <ele>1571.6</ele>
        <time>2019-06-23T12:15:30Z</time>
      </trkpt>
      <trkpt lat="44.801702" lon="6.584017">
        <ele>1569.6</ele>
        <time>2019-06-23T12:15:44Z</time>
      </trkpt>
      <trkpt lat="44.801710" lon="6.584018">
        <ele>1569.5</ele>
        <time>2019-06-23T12:15:45Z</time>
      </trkpt>
      <trkpt lat="44.801868" lon="6.583983">
        <ele>1565.9</ele>
        <time>2019-06-23T12:16:11Z</time>
      </trkpt>
      <trkpt lat="44.801905" lon="6.583872">
        <ele>1562.0</ele>
        <time>2019-06-23T12:16:26Z</time>
      </trkpt>
      <trkpt lat="44.801902" lon="6.583760">
        <ele>1560.0</ele>
        <time>2019-06-23T12:16:40Z</time>
      </trkpt>
      <trkpt lat="44.801930" lon="6.583642">
        <ele>1558.9</ele>
        <time>2019-06-23T12:16:49Z</time>
      </trkpt>
      <trkpt lat="44.801922" lon="6.583627">
        <ele>1558.6</ele>
        <time>2019-06-23T12:16:50Z</time>
      </trkpt>
      <trkpt lat="44.801862" lon="6.583438">
        <ele>1555.3</ele>
        <time>2019-06-23T12:17:10Z</time>
      </trkpt>
      <trkpt lat="44.801795" lon="6.583370">
        <ele>1553.5</ele>
        <time>2019-06-23T12:17:14Z</time>
      </trkpt>
      <trkpt lat="44.801750" lon="6.583290">
        <ele>1552.0</ele>
        <time>2019-06-23T12:17:20Z</time>
      </trkpt>
      <trkpt lat="44.801680" lon="6.583215">
        <ele>1550.4</ele>
        <time>2019-06-23T12:17:26Z</time>
      </trkpt>
      <trkpt lat="44.801662" lon="6.583100">
        <ele>1548.8</ele>
        <time>2019-06-23T12:17:35Z</time>
      </trkpt>
      <trkpt lat="44.801647" lon="6.582987">
        <ele>1548.5</ele>
        <time>2019-06-23T12:17:43Z</time>
      </trkpt>
      <trkpt lat="44.801698" lon="6.582888">
        <ele>1548.9</ele>
        <time>2019-06-23T12:17:54Z</time>
      </trkpt>
      <trkpt lat="44.801700" lon="6.582883">
        <ele>1548.8</ele>
        <time>2019-06-23T12:17:55Z</time>
      </trkpt>
      <trkpt lat="44.801835" lon="6.582733">
        <ele>1547.9</ele>
        <time>2019-06-23T12:18:20Z</time>
      </trkpt>
      <trkpt lat="44.801922" lon="6.582733">
        <ele>1547.0</ele>
        <time>2019-06-23T12:18:31Z</time>
      </trkpt>
      <trkpt lat="44.801997" lon="6.582777">
        <ele>1545.8</ele>
        <time>2019-06-23T12:18:40Z</time>
      </trkpt>
      <trkpt lat="44.802072" lon="6.582812">
        <ele>1533.4</ele>
        <time>2019-06-23T12:18:55Z</time>
      </trkpt>
      <trkpt lat="44.802085" lon="6.582818">
        <ele>1532.4</ele>
        <time>2019-06-23T12:18:56Z</time>
      </trkpt>
      <trkpt lat="44.802222" lon="6.582888">
        <ele>1525.1</ele>
        <time>2019-06-23T12:19:05Z</time>
      </trkpt>
      <trkpt lat="44.802285" lon="6.582962">
        <ele>1520.1</ele>
        <time>2019-06-23T12:19:10Z</time>
      </trkpt>
      <trkpt lat="44.802345" lon="6.583038">
        <ele>1515.8</ele>
        <time>2019-06-23T12:19:15Z</time>
      </trkpt>
      <trkpt lat="44.802392" lon="6.583123">
        <ele>1511.9</ele>
        <time>2019-06-23T12:19:20Z</time>
      </trkpt>
      <trkpt lat="44.802430" lon="6.583237">
        <ele>1509.0</ele>
        <time>2019-06-23T12:19:24Z</time>
      </trkpt>
      <trkpt lat="44.802455" lon="6.583347">
        <ele>1506.0</ele>
        <time>2019-06-23T12:19:29Z</time>
      </trkpt>
      <trkpt lat="44.802482" lon="6.583452">
        <ele>1503.0</ele>
        <time>2019-06-23T12:19:34Z</time>
      </trkpt>
      <trkpt lat="44.802518" lon="6.583562">
        <ele>1499.5</ele>
        <time>2019-06-23T12:19:40Z</time>
      </trkpt>
      <trkpt lat="44.802567" lon="6.583642">
        <ele>1497.5</ele>
        <time>2019-06-23T12:19:44Z</time>
      </trkpt>
      <trkpt lat="44.802630" lon="6.583720">
        <ele>1495.1</ele>
        <time>2019-06-23T12:19:49Z</time>
      </trkpt>
      <trkpt lat="44.802712" lon="6.583743">
        <ele>1491.0</ele>
        <time>2019-06-23T12:19:56Z</time>
      </trkpt>
      <trkpt lat="44.802725" lon="6.583740">
        <ele>1490.5</ele>
        <time>2019-06-23T12:19:57Z</time>
      </trkpt>
      <trkpt lat="44.802850" lon="6.583622">
        <ele>1492.5</ele>
        <time>2019-06-23T12:20:17Z</time>
      </trkpt>
      <trkpt lat="44.802890" lon="6.583520">
        <ele>1494.3</ele>
        <time>2019-06-23T12:20:23Z</time>
      </trkpt>
      <trkpt lat="44.802937" lon="6.583422">
        <ele>1494.4</ele>
        <time>2019-06-23T12:20:29Z</time>
      </trkpt>
      <trkpt lat="44.802968" lon="6.583307">
        <ele>1494.5</ele>
        <time>2019-06-23T12:20:37Z</time>
      </trkpt>
      <trkpt lat="44.803052" lon="6.583307">
        <ele>1495.0</ele>
        <time>2019-06-23T12:20:44Z</time>
      </trkpt>
      <trkpt lat="44.803115" lon="6.583382">
        <ele>1494.0</ele>
        <time>2019-06-23T12:20:50Z</time>
      </trkpt>
      <trkpt lat="44.803170" lon="6.583472">
        <ele>1493.4</ele>
        <time>2019-06-23T12:21:19Z</time>
      </trkpt>
      <trkpt lat="44.803173" lon="6.583485">
        <ele>1493.5</ele>
        <time>2019-06-23T12:21:20Z</time>
      </trkpt>
      <trkpt lat="44.803227" lon="6.583687">
        <ele>1493.8</ele>
        <time>2019-06-23T12:21:31Z</time>
      </trkpt>
      <trkpt lat="44.803267" lon="6.583787">
        <ele>1494.1</ele>
        <time>2019-06-23T12:21:52Z</time>
      </trkpt>
      <trkpt lat="44.803287" lon="6.583898">
        <ele>1494.3</ele>
        <time>2019-06-23T12:22:38Z</time>
      </trkpt>
      <trkpt lat="44.803303" lon="6.583913">
        <ele>1494.3</ele>
        <time>2019-06-23T12:22:39Z</time>
      </trkpt>
      <trkpt lat="44.803405" lon="6.584068">
        <ele>1494.4</ele>
        <time>2019-06-23T12:22:49Z</time>
      </trkpt>
      <trkpt lat="44.803457" lon="6.584165">
        <ele>1494.9</ele>
        <time>2019-06-23T12:22:55Z</time>
      </trkpt>
      <trkpt lat="44.803475" lon="6.584287">
        <ele>1494.6</ele>
        <time>2019-06-23T12:23:02Z</time>
      </trkpt>
      <trkpt lat="44.803460" lon="6.584407">
        <ele>1494.5</ele>
        <time>2019-06-23T12:23:08Z</time>
      </trkpt>
      <trkpt lat="44.803467" lon="6.584517">
        <ele>1493.9</ele>
        <time>2019-06-23T12:23:13Z</time>
      </trkpt>
      <trkpt lat="44.803485" lon="6.584632">
        <ele>1493.6</ele>
        <time>2019-06-23T12:23:19Z</time>
      </trkpt>
      <trkpt lat="44.803527" lon="6.584740">
        <ele>1493.6</ele>
        <time>2019-06-23T12:23:30Z</time>
      </trkpt>
      <trkpt lat="44.803613" lon="6.584730">
        <ele>1493.5</ele>
        <time>2019-06-23T12:23:39Z</time>
      </trkpt>
      <trkpt lat="44.803620" lon="6.584720">
        <ele>1493.5</ele>
        <time>2019-06-23T12:23:40Z</time>
      </trkpt>
      <trkpt lat="44.803772" lon="6.584740">
        <ele>1492.8</ele>
        <time>2019-06-23T12:24:03Z</time>
      </trkpt>
      <trkpt lat="44.803843" lon="6.584798">
        <ele>1492.0</ele>
        <time>2019-06-23T12:24:12Z</time>
      </trkpt>
      <trkpt lat="44.803903" lon="6.584868">
        <ele>1492.0</ele>
        <time>2019-06-23T12:24:19Z</time>
      </trkpt>
      <trkpt lat="44.803975" lon="6.584927">
        <ele>1492.1</ele>
        <time>2019-06-23T12:24:26Z</time>
      </trkpt>
      <trkpt lat="44.804063" lon="6.584913">
        <ele>1491.8</ele>
        <time>2019-06-23T12:24:34Z</time>
      </trkpt>
      <trkpt lat="44.804090" lon="6.584797">
        <ele>1492.0</ele>
        <time>2019-06-23T12:24:41Z</time>
      </trkpt>
      <trkpt lat="44.804083" lon="6.584782">
        <ele>1492.0</ele>
        <time>2019-06-23T12:24:42Z</time>
      </trkpt>
      <trkpt lat="44.804183" lon="6.584592">
        <ele>1495.6</ele>
        <time>2019-06-23T12:24:57Z</time>
      </trkpt>
      <trkpt lat="44.804242" lon="6.584517">
        <ele>1497.0</ele>
        <time>2019-06-23T12:25:04Z</time>
      </trkpt>
      <trkpt lat="44.804312" lon="6.584485">
        <ele>1497.5</ele>
        <time>2019-06-23T12:25:10Z</time>
      </trkpt>
      <trkpt lat="44.804395" lon="6.584463">
        <ele>1497.9</ele>
        <time>2019-06-23T12:25:17Z</time>
      </trkpt>
      <trkpt lat="44.804477" lon="6.584452">
        <ele>1498.9</ele>
        <time>2019-06-23T12:25:25Z</time>
      </trkpt>
      <trkpt lat="44.804563" lon="6.584445">
        <ele>1499.3</ele>
        <time>2019-06-23T12:25:33Z</time>
      </trkpt>
      <trkpt lat="44.804650" lon="6.584447">
        <ele>1499.0</ele>
        <time>2019-06-23T12:25:40Z</time>
      </trkpt>
      <trkpt lat="44.804733" lon="6.584425">
        <ele>1500.9</ele>
        <time>2019-06-23T12:25:46Z</time>
      </trkpt>
      <trkpt lat="44.804747" lon="6.584425">
        <ele>1500.5</ele>
        <time>2019-06-23T12:25:47Z</time>
      </trkpt>
      <trkpt lat="44.804870" lon="6.584322">
        <ele>1501.8</ele>
        <time>2019-06-23T12:26:01Z</time>
      </trkpt>
      <trkpt lat="44.804915" lon="6.584228">
        <ele>1503.6</ele>
        <time>2019-06-23T12:26:09Z</time>
      </trkpt>
      <trkpt lat="44.804955" lon="6.584120">
        <ele>1504.5</ele>
        <time>2019-06-23T12:26:17Z</time>
      </trkpt>
      <trkpt lat="44.804997" lon="6.584015">
        <ele>1506.0</ele>
        <time>2019-06-23T12:26:25Z</time>
      </trkpt>
      <trkpt lat="44.805038" lon="6.583915">
        <ele>1507.8</ele>
        <time>2019-06-23T12:26:33Z</time>
      </trkpt>
      <trkpt lat="44.805098" lon="6.583833">
        <ele>1510.0</ele>
        <time>2019-06-23T12:26:41Z</time>
      </trkpt>
      <trkpt lat="44.805183" lon="6.583807">
        <ele>1511.0</ele>
        <time>2019-06-23T12:26:49Z</time>
      </trkpt>
      <trkpt lat="44.805193" lon="6.583808">
        <ele>1511.1</ele>
        <time>2019-06-23T12:26:50Z</time>
      </trkpt>
      <trkpt lat="44.805335" lon="6.583707">
        <ele>1511.5</ele>
        <time>2019-06-23T12:27:06Z</time>
      </trkpt>
      <trkpt lat="44.805415" lon="6.583668">
        <ele>1511.6</ele>
        <time>2019-06-23T12:27:14Z</time>
      </trkpt>
      <trkpt lat="44.805492" lon="6.583635">
        <ele>1512.3</ele>
        <time>2019-06-23T12:27:22Z</time>
      </trkpt>
      <trkpt lat="44.805562" lon="6.583592">
        <ele>1513.8</ele>
        <time>2019-06-23T12:28:43Z</time>
      </trkpt>
      <trkpt lat="44.805562" lon="6.583592">
        <ele>1513.8</ele>
        <time>2019-06-23T12:28:44Z</time>
      </trkpt>
      <trkpt lat="44.805562" lon="6.583592">
        <ele>1513.8</ele>
        <time>2019-06-23T12:28:44Z</time>
      </trkpt>
      <trkpt lat="44.805562" lon="6.583592">
        <ele>1513.8</ele>
        <time>2019-06-23T12:28:48Z</time>
      </trkpt>
    </trkseg>
  </trk>
</gpx>
